Time;durP1;ratioP1;P1;durP2;ratioP2;P2;SDS_P1;SDS_P2;PMS_P1;PMS_P2;Temp;Humidity;BMP_temperature;BMP_pressure;BME280_temperature;BME280_humidity;BME280_pressure;Samples;Min_cycle;Max_cycle;Signal;HPM_P1;HPM_P2
2022/06/24 00:02:26;;;;;;;3.33;1.77;;;20.20;99.90;;;;;;5132375;27;20547;-70
2022/06/24 00:04:55;;;;;;;2.70;1.93;;;20.30;99.90;;;;;;5132580;27;20946;-70
2022/06/24 00:07:22;;;;;;;2.13;2.00;;;20.40;99.90;;;;;;5133056;27;20868;-68
2022/06/24 00:09:50;;;;;;;2.20;1.57;;;20.50;99.90;;;;;;5132583;27;20488;-71
2022/06/24 00:12:21;;;;;;;2.47;1.80;;;20.60;99.90;;;;;;5132620;27;20464;-70
2022/06/24 00:14:58;;;;;;;3.70;1.87;;;20.60;99.90;;;;;;5132694;27;20533;-70
2022/06/24 00:17:28;;;;;;;2.43;1.60;;;20.70;99.90;;;;;;5136765;27;20471;-71
2022/06/24 00:19:57;;;;;;;3.40;2.00;;;20.60;99.90;;;;;;5136485;27;20453;-71
2022/06/24 00:22:25;;;;;;;4.23;2.40;;;20.60;99.90;;;;;;5135789;27;20475;-70
2022/06/24 00:25:08;;;;;;;2.37;2.17;;;20.40;99.90;;;;;;5136468;27;20892;-69
2022/06/24 00:27:37;;;;;;;3.93;2.40;;;20.20;99.90;;;;;;5136560;27;20444;-69
2022/06/24 00:30:12;;;;;;;4.43;2.80;;;20.10;99.90;;;;;;5136289;27;20576;-70
2022/06/24 00:32:39;;;;;;;3.80;1.90;;;20.00;99.90;;;;;;5135736;27;20985;-68
2022/06/24 00:35:09;;;;;;;2.27;2.17;;;20.10;99.90;;;;;;5135762;27;20546;-69
2022/06/24 00:37:37;;;;;;;3.50;2.53;;;20.10;99.90;;;;;;5136607;27;20481;-70
2022/06/24 00:40:24;;;;;;;4.27;2.50;;;20.10;99.90;;;;;;5136160;27;20855;-69
2022/06/24 00:42:53;;;;;;;4.73;2.43;;;20.20;99.90;;;;;;5135568;27;20985;-71
2022/06/24 00:45:28;;;;;;;3.93;2.50;;;20.10;99.90;;;;;;5135633;27;20457;-69
2022/06/24 00:47:56;;;;;;;6.23;3.00;;;20.10;99.90;;;;;;5136272;27;20541;-70
2022/06/24 00:50:26;;;;;;;4.43;3.10;;;20.00;99.90;;;;;;5135581;27;20529;-70
2022/06/24 00:52:55;;;;;;;4.83;2.80;;;19.90;99.90;;;;;;5135376;27;20910;-69
2022/06/24 00:55:26;;;;;;;3.10;2.80;;;19.70;99.90;;;;;;5135702;27;20489;-70
2022/06/24 00:57:55;;;;;;;5.20;2.73;;;19.60;99.90;;;;;;5135621;27;21160;-70
2022/06/24 01:00:24;;;;;;;6.50;2.90;;;19.70;99.90;;;;;;5135613;27;20530;-69
2022/06/24 01:02:56;;;;;;;5.87;2.77;;;19.60;99.90;;;;;;5135031;27;21011;-69
2022/06/24 01:05:23;;;;;;;2.87;2.60;;;19.60;99.90;;;;;;5135739;27;20532;-69
2022/06/24 01:07:50;;;;;;;4.37;2.70;;;19.70;99.90;;;;;;5135418;27;20458;-70
2022/06/24 01:10:17;;;;;;;3.20;2.30;;;19.70;99.90;;;;;;5136168;27;20516;-68
2022/06/24 01:12:44;;;;;;;2.73;2.37;;;19.70;99.90;;;;;;5136242;27;20495;-68
2022/06/24 01:15:12;;;;;;;4.30;2.80;;;19.70;99.90;;;;;;5136831;27;20877;-68
2022/06/24 01:17:39;;;;;;;2.70;2.50;;;19.70;99.90;;;;;;5136489;27;20465;-68
2022/06/24 01:20:09;;;;;;;5.93;2.83;;;19.70;99.90;;;;;;5136457;27;21082;-68
2022/06/24 01:22:38;;;;;;;4.70;2.60;;;19.80;99.90;;;;;;5136219;27;20959;-68
2022/06/24 01:25:06;;;;;;;2.70;2.50;;;19.70;99.90;;;;;;5136661;27;20565;-68
2022/06/24 01:27:33;;;;;;;3.83;2.60;;;19.60;99.90;;;;;;5136036;27;20440;-68
2022/06/24 01:30:00;;;;;;;3.83;3.00;;;19.70;99.90;;;;;;5136097;27;20483;-68
2022/06/24 01:32:27;;;;;;;3.33;2.50;;;19.70;99.90;;;;;;5135865;27;21009;-68
2022/06/24 01:34:54;;;;;;;4.78;2.47;;;19.70;99.90;;;;;;5136209;27;20971;-68
2022/06/24 01:37:20;;;;;;;2.90;2.70;;;19.60;99.90;;;;;;5136311;27;20740;-69
2022/06/24 01:39:49;;;;;;;4.30;3.50;;;19.60;99.90;;;;;;5136152;27;20876;-68
2022/06/24 01:42:16;;;;;;;5.10;2.90;;;19.50;99.90;;;;;;5135834;27;20552;-68
2022/06/24 01:44:43;;;;;;;5.63;3.90;;;19.60;99.90;;;;;;5136128;27;20440;-68
2022/06/24 01:47:10;;;;;;;6.53;3.40;;;19.70;99.90;;;;;;5136045;27;20527;-68
2022/06/24 01:49:37;;;;;;;4.90;3.30;;;19.50;99.90;;;;;;5136050;27;20881;-68
2022/06/24 01:52:04;;;;;;;6.97;3.40;;;19.50;99.90;;;;;;5135725;27;20546;-68
2022/06/24 01:54:31;;;;;;;4.27;3.20;;;19.40;99.90;;;;;;5136054;27;20526;-68
2022/06/24 01:57:00;;;;;;;3.87;3.57;;;19.50;99.90;;;;;;5135929;27;20879;-69
2022/06/24 01:59:26;;;;;;;4.50;3.27;;;19.50;99.90;;;;;;5135638;27;20914;-68
2022/06/24 02:01:53;;;;;;;5.40;3.70;;;19.40;99.90;;;;;;5135670;27;20559;-68
2022/06/24 02:04:20;;;;;;;3.77;3.47;;;19.30;99.90;;;;;;5135609;27;20526;-68
2022/06/24 02:06:47;;;;;;;3.60;3.00;;;19.40;99.90;;;;;;5135469;27;20527;-68
2022/06/24 02:09:16;;;;;;;4.30;3.73;;;19.30;99.90;;;;;;5135422;27;21071;-68
2022/06/24 02:14:29;;;;;;;4.10;3.40;;;19.40;99.90;;;;;;5135391;27;20434;-68
2022/06/24 02:16:56;;;;;;;4.53;3.50;;;19.50;99.90;;;;;;5135606;27;20531;-68
2022/06/24 02:19:23;;;;;;;4.30;3.90;;;19.60;99.90;;;;;;5135429;27;20531;-69
2022/06/24 02:21:50;;;;;;;3.63;3.33;;;19.60;99.90;;;;;;5135408;27;20918;-69
2022/06/24 02:24:17;;;;;;;5.90;3.43;;;19.60;99.90;;;;;;5135178;27;20949;-68
2022/06/24 02:26:44;;;;;;;4.30;3.60;;;19.80;99.90;;;;;;5135267;27;20529;-68
2022/06/24 02:29:11;;;;;;;3.23;2.67;;;19.80;99.90;;;;;;5135144;27;20480;-68
2022/06/24 02:31:39;;;;;;;3.90;2.97;;;19.80;99.90;;;;;;5135023;27;20443;-68
2022/06/24 02:34:06;;;;;;;3.08;2.88;;;19.80;99.90;;;;;;5135050;27;20530;-68
2022/06/24 02:36:33;;;;;;;6.70;3.60;;;19.80;99.90;;;;;;5135113;27;20297;-68
2022/06/24 02:39:00;;;;;;;4.10;2.80;;;19.80;99.90;;;;;;5134218;27;20461;-68
2022/06/24 02:41:28;;;;;;;3.40;3.10;;;19.80;99.90;;;;;;5135031;27;20861;-68
2022/06/24 02:43:55;;;;;;;4.50;3.30;;;19.70;99.90;;;;;;5134540;27;20444;-69
2022/06/24 02:46:22;;;;;;;5.83;2.60;;;19.70;99.90;;;;;;5134918;27;20531;-68
2022/06/24 02:48:50;;;;;;;5.03;3.37;;;19.70;99.90;;;;;;5134829;27;20441;-68
2022/06/24 02:51:17;;;;;;;3.20;3.00;;;19.70;99.90;;;;;;5134692;27;20440;-68
2022/06/24 02:53:44;;;;;;;6.30;3.33;;;19.60;99.90;;;;;;5134397;27;20898;-68
2022/06/24 02:56:13;;;;;;;3.53;3.23;;;19.70;99.90;;;;;;5134788;27;20492;-68
2022/06/24 02:58:40;;;;;;;3.80;3.17;;;19.60;99.90;;;;;;5134703;27;20539;-69
2022/06/24 03:01:07;;;;;;;4.80;3.72;;;19.60;99.90;;;;;;5134776;27;20519;-69
2022/06/24 03:03:34;;;;;;;5.05;3.47;;;19.50;99.90;;;;;;5134325;27;20763;-68
2022/06/24 03:06:03;;;;;;;4.45;3.17;;;19.40;99.90;;;;;;5134556;27;20301;-68
2022/06/24 03:08:30;;;;;;;4.70;3.20;;;19.50;99.90;;;;;;5134501;27;20631;-69
2022/06/24 03:10:58;;;;;;;4.55;3.50;;;19.40;99.90;;;;;;5134554;27;20319;-68
2022/06/24 03:13:25;;;;;;;5.47;3.30;;;19.40;99.90;;;;;;5134381;27;20320;-68
2022/06/24 03:15:52;;;;;;;5.97;3.23;;;19.30;99.90;;;;;;5134591;27;20528;-68
2022/06/24 03:18:19;;;;;;;4.40;3.33;;;19.30;99.90;;;;;;5134569;27;20533;-69
2022/06/24 03:20:47;;;;;;;3.70;3.20;;;19.30;99.90;;;;;;5134529;27;20474;-68
2022/06/24 03:23:15;;;;;;;3.57;3.23;;;19.30;99.90;;;;;;5134101;27;20223;-69
2022/06/24 03:25:42;;;;;;;3.00;2.80;;;19.30;99.90;;;;;;5134476;27;20529;-69
2022/06/24 03:28:09;;;;;;;5.73;4.47;;;19.30;99.90;;;;;;5134205;27;20849;-69
2022/06/24 03:30:36;;;;;;;7.55;3.65;;;19.20;99.90;;;;;;5134561;27;20565;-68
2022/06/24 03:33:03;;;;;;;5.97;3.88;;;19.10;99.90;;;;;;5134275;27;20333;-69
2022/06/24 03:35:30;;;;;;;5.95;4.13;;;19.00;99.90;;;;;;5134433;27;20259;-68
2022/06/24 03:37:57;;;;;;;4.90;4.40;;;18.80;99.90;;;;;;5134083;27;20292;-68
2022/06/24 03:40:26;;;;;;;7.78;3.80;;;18.70;99.90;;;;;;5134269;27;20666;-68
2022/06/24 03:42:53;;;;;;;4.63;4.22;;;18.50;99.90;;;;;;5134025;27;20311;-68
2022/06/24 03:45:20;;;;;;;7.03;4.00;;;18.40;99.90;;;;;;5134083;27;20249;-68
2022/06/24 03:47:47;;;;;;;5.10;4.60;;;18.30;99.90;;;;;;5134169;27;20719;-68
2022/06/24 03:50:15;;;;;;;5.03;4.05;;;18.40;99.90;;;;;;5134967;27;20642;-68
2022/06/24 03:52:41;;;;;;;5.68;4.55;;;18.30;99.90;;;;;;5137761;27;20231;-68
2022/06/24 03:55:09;;;;;;;7.57;4.43;;;18.30;99.90;;;;;;5138223;27;20607;-68
2022/06/24 03:57:37;;;;;;;8.07;4.30;;;18.40;99.90;;;;;;5138205;27;20289;-68
2022/06/24 04:00:07;;;;;;;4.35;3.70;;;18.40;99.90;;;;;;5138456;27;20675;-68
2022/06/24 04:02:34;;;;;;;4.25;3.70;;;18.40;99.90;;;;;;5137615;27;20702;-68
2022/06/24 04:05:01;;;;;;;4.35;3.95;;;18.50;99.90;;;;;;5137715;27;20201;-68
2022/06/24 04:07:28;;;;;;;4.22;3.83;;;18.50;99.90;;;;;;5137983;27;20296;-69
2022/06/24 04:09:55;;;;;;;7.70;4.50;;;18.50;99.90;;;;;;5137873;27;20311;-69
2022/06/24 04:12:21;;;;;;;5.40;4.43;;;18.50;99.90;;;;;;5137735;27;20217;-68
2022/06/24 04:17:34;;;;;;;6.65;4.35;;;18.60;99.90;;;;;;5137865;27;20205;-68
2022/06/24 04:20:01;;;;;;;6.05;4.38;;;18.70;99.90;;;;;;5137653;27;20288;-68
2022/06/24 04:22:28;;;;;;;5.40;4.43;;;18.70;99.90;;;;;;5137431;27;20347;-68
2022/06/24 04:24:55;;;;;;;5.60;4.32;;;18.70;99.90;;;;;;5137492;27;20288;-69
2022/06/24 04:27:22;;;;;;;4.50;3.90;;;18.60;99.90;;;;;;5137658;27;20293;-69
2022/06/24 04:29:50;;;;;;;4.57;4.15;;;18.70;99.90;;;;;;5137398;27;20303;-69
2022/06/24 04:32:17;;;;;;;6.45;5.00;;;18.60;99.90;;;;;;5137172;27;20260;-69
2022/06/24 04:34:44;;;;;;;5.65;4.78;;;18.60;99.90;;;;;;5137520;27;20288;-69
2022/06/24 04:37:10;;;;;;;5.38;4.63;;;18.60;99.90;;;;;;5137375;27;20296;-69
2022/06/24 04:39:37;;;;;;;6.57;5.07;;;18.60;99.90;;;;;;5137452;27;20202;-69
2022/06/24 04:42:05;;;;;;;7.47;5.70;;;18.70;99.90;;;;;;5137215;27;20502;-69
2022/06/24 04:44:32;;;;;;;7.38;4.95;;;18.80;99.90;;;;;;5137228;27;20288;-69
2022/06/24 04:47:00;;;;;;;6.43;4.53;;;18.90;99.90;;;;;;5137129;27;20288;-69
2022/06/24 04:49:27;;;;;;;7.28;4.80;;;18.90;99.90;;;;;;5137111;27;20294;-69
2022/06/24 04:51:54;;;;;;;5.10;4.60;;;19.00;99.90;;;;;;5137107;27;20317;-69
2022/06/24 04:54:21;;;;;;;11.07;5.57;;;19.10;99.90;;;;;;5136708;27;20579;-69
2022/06/24 04:56:48;;;;;;;5.70;4.80;;;19.10;99.90;;;;;;5136953;27;20293;-69
2022/06/24 04:59:15;;;;;;;7.28;5.53;;;19.10;99.90;;;;;;5136947;27;20292;-69
2022/06/24 05:01:42;;;;;;;6.55;4.90;;;19.10;99.90;;;;;;5136121;27;20288;-69
2022/06/24 05:04:10;;;;;;;6.57;5.47;;;19.00;99.90;;;;;;5136757;27;20288;-69
2022/06/24 05:06:37;;;;;;;7.97;4.60;;;19.00;99.90;;;;;;5136750;27;20202;-69
2022/06/24 05:09:04;;;;;;;5.88;4.72;;;19.00;99.90;;;;;;5136919;27;20843;-69
2022/06/24 05:11:31;;;;;;;5.50;4.32;;;19.00;99.90;;;;;;5136469;27;20228;-69
2022/06/24 05:13:58;;;;;;;8.43;4.70;;;19.00;99.90;;;;;;5136834;27;20205;-69
2022/06/24 05:16:25;;;;;;;10.70;5.55;;;19.00;99.90;;;;;;5136497;27;20203;-69
2022/06/24 05:18:52;;;;;;;8.15;6.15;;;19.00;99.90;;;;;;5136486;27;20292;-69
2022/06/24 05:21:20;;;;;;;5.80;4.68;;;19.00;99.90;;;;;;5136585;27;20294;-69
2022/06/24 05:23:47;;;;;;;6.28;5.35;;;19.00;99.90;;;;;;5136188;27;20313;-69
2022/06/24 05:26:14;;;;;;;5.60;5.10;;;19.00;99.90;;;;;;5136459;27;20295;-69
2022/06/24 05:28:41;;;;;;;6.40;4.68;;;19.10;99.90;;;;;;5136337;27;20293;-69
2022/06/24 05:31:07;;;;;;;8.07;5.35;;;19.20;99.90;;;;;;5136183;27;20312;-69
2022/06/24 05:33:34;;;;;;;6.18;4.70;;;19.20;99.90;;;;;;5136046;27;20309;-69
2022/06/24 05:36:01;;;;;;;6.07;4.70;;;19.20;99.90;;;;;;5136213;27;20199;-69
2022/06/24 05:38:29;;;;;;;6.15;4.95;;;19.30;99.90;;;;;;5136095;27;20522;-69
2022/06/24 05:40:56;;;;;;;8.47;4.93;;;19.30;99.90;;;;;;5136258;27;20199;-69
2022/06/24 05:43:23;;;;;;;6.60;4.00;;;19.30;99.90;;;;;;5135662;27;20467;-69
2022/06/24 05:45:50;;;;;;;5.25;4.50;;;19.40;99.90;;;;;;5136065;27;20475;-69
2022/06/24 05:48:17;;;;;;;7.60;4.53;;;19.40;99.90;;;;;;5136037;27;20233;-69
2022/06/24 05:50:44;;;;;;;5.37;4.50;;;19.40;99.90;;;;;;5135894;27;20472;-69
2022/06/24 05:56:02;;;;;;;8.20;4.60;;;19.50;99.90;;;;;;5135968;27;20449;-69
2022/06/24 05:58:29;;;;;;;6.60;4.70;;;19.50;99.90;;;;;;5136109;27;20456;-69
2022/06/24 06:00:57;;;;;;;6.43;4.63;;;19.60;99.90;;;;;;5135833;27;20860;-69
2022/06/24 06:03:25;;;;;;;4.87;4.47;;;19.60;99.90;;;;;;5135259;27;21041;-69
2022/06/24 06:05:52;;;;;;;5.23;4.73;;;19.60;99.90;;;;;;5135681;27;20451;-69
2022/06/24 06:08:20;;;;;;;6.27;4.60;;;19.70;99.90;;;;;;5135573;27;20440;-69
2022/06/24 06:10:46;;;;;;;6.53;5.13;;;19.60;99.90;;;;;;5135305;27;21005;-69
2022/06/24 06:13:15;;;;;;;5.57;4.73;;;19.70;99.90;;;;;;5134832;27;20566;-69
2022/06/24 06:15:42;;;;;;;8.00;4.90;;;19.80;99.90;;;;;;5135010;27;20535;-69
2022/06/24 06:18:10;;;;;;;12.20;5.93;;;19.80;99.90;;;;;;5135370;27;20444;-69
2022/06/24 06:20:37;;;;;;;6.77;4.83;;;19.80;99.90;;;;;;5135406;27;20436;-69
2022/06/24 06:23:04;;;;;;;6.30;5.80;;;19.80;99.90;;;;;;5135042;27;21037;-70
2022/06/24 06:25:31;;;;;;;5.93;5.30;;;19.90;99.90;;;;;;5135300;27;20535;-69
2022/06/24 06:27:58;;;;;;;7.53;5.50;;;19.90;99.90;;;;;;5135292;27;20525;-69
2022/06/24 06:30:26;;;;;;;6.83;5.23;;;19.90;99.90;;;;;;5135174;27;20909;-69
2022/06/24 06:32:53;;;;;;;13.90;5.93;;;19.90;99.90;;;;;;5134905;27;20481;-69
2022/06/24 06:35:20;;;;;;;8.97;5.70;;;19.90;99.90;;;;;;5135209;27;20536;-69
2022/06/24 06:37:47;;;;;;;8.13;5.83;;;19.90;99.90;;;;;;5134859;27;20532;-69
2022/06/24 06:40:14;;;;;;;5.40;4.90;;;19.90;99.90;;;;;;5135106;27;20434;-69
2022/06/24 06:42:41;;;;;;;10.13;5.87;;;20.00;99.90;;;;;;5134603;27;20545;-70
2022/06/24 06:45:08;;;;;;;6.00;5.40;;;20.20;99.90;;;;;;5134850;27;20450;-70
2022/06/24 06:47:37;;;;;;;6.43;5.20;;;20.30;99.90;;;;;;5134887;27;20521;-70
2022/06/24 06:50:05;;;;;;;5.90;5.40;;;20.40;99.90;;;;;;5134514;27;20529;-70
2022/06/24 06:52:32;;;;;;;7.10;5.67;;;20.50;99.90;;;;;;5134482;27;20492;-70
2022/06/24 06:55:02;;;;;;;5.60;5.00;;;20.50;99.90;;;;;;5134917;27;20528;-69
2022/06/24 06:57:28;;;;;;;6.40;5.13;;;20.60;99.90;;;;;;5134800;27;20442;-69
2022/06/24 06:59:55;;;;;;;5.37;4.87;;;20.70;99.90;;;;;;5134700;27;21003;-69
2022/06/24 07:02:22;;;;;;;6.40;4.53;;;21.10;99.90;;;;;;5134352;27;20540;-69
2022/06/24 07:04:50;;;;;;;4.57;4.17;;;21.50;99.90;;;;;;5134726;27;20533;-69
2022/06/24 07:07:17;;;;;;;4.60;4.10;;;21.80;99.90;;;;;;5134522;27;21018;-69
2022/06/24 07:09:44;;;;;;;4.43;4.03;;;21.90;99.90;;;;;;5134478;27;20441;-69
2022/06/24 07:12:11;;;;;;;4.47;4.10;;;22.00;99.90;;;;;;5134133;27;20478;-69
2022/06/24 07:14:40;;;;;;;4.60;3.90;;;22.10;99.90;;;;;;5134610;27;20441;-69
2022/06/24 07:17:07;;;;;;;4.80;3.90;;;22.10;99.90;;;;;;5134509;27;20545;-69
2022/06/24 07:19:35;;;;;;;4.20;3.90;;;22.20;99.90;;;;;;5134325;27;20534;-69
2022/06/24 07:22:03;;;;;;;4.70;4.20;;;22.30;99.90;;;;;;5134459;27;20458;-69
2022/06/24 07:24:30;;;;;;;4.70;3.70;;;22.30;99.90;;;;;;5134712;27;20537;-69
2022/06/24 07:26:57;;;;;;;4.53;4.23;;;22.40;99.90;;;;;;5138362;27;20517;-69
2022/06/24 07:29:24;;;;;;;4.50;4.03;;;22.40;99.90;;;;;;5138490;27;20862;-69
2022/06/24 07:31:51;;;;;;;3.93;3.70;;;22.40;99.90;;;;;;5138458;27;20489;-69
2022/06/24 07:34:18;;;;;;;4.70;3.90;;;22.40;99.90;;;;;;5138489;27;20464;-69
2022/06/24 07:36:44;;;;;;;4.37;4.07;;;22.40;99.90;;;;;;5138478;27;20434;-70
2022/06/24 07:39:13;;;;;;;4.30;3.90;;;22.50;99.90;;;;;;5138703;27;20522;-69
2022/06/24 07:41:40;;;;;;;7.80;7.10;;;22.70;99.90;;;;;;5138505;27;20785;-70
2022/06/24 07:44:07;;;;;;;8.60;4.47;;;22.70;99.90;;;;;;5138305;27;20470;-70
2022/06/24 07:46:34;;;;;;;4.80;4.00;;;22.80;99.90;;;;;;5138238;27;20524;-70
2022/06/24 07:49:00;;;;;;;4.57;4.03;;;22.90;99.90;;;;;;5138238;27;20531;-70
2022/06/24 07:51:27;;;;;;;5.00;3.50;;;23.00;99.90;;;;;;5138239;27;20503;-69
2022/06/24 07:53:54;;;;;;;4.30;3.63;;;23.20;99.90;;;;;;5137923;27;20559;-70
2022/06/24 07:59:07;;;;;;;3.73;3.40;;;24.80;99.90;;;;;;5138331;27;20563;-70
2022/06/24 08:01:34;;;;;;;3.53;3.13;;;25.60;99.90;;;;;;5138084;27;20842;-70
2022/06/24 08:04:07;;;;;;;3.70;3.40;;;26.20;99.90;;;;;;5137916;27;20857;-70
2022/06/24 08:06:34;;;;;;;3.73;3.43;;;26.70;99.90;;;;;;5138077;27;20442;-70
2022/06/24 08:09:01;;;;;;;3.60;3.30;;;27.00;99.90;;;;;;5137976;27;21003;-70
2022/06/24 08:11:30;;;;;;;3.90;3.13;;;26.80;99.80;;;;;;5137928;27;20966;-70
2022/06/24 08:13:57;;;;;;;3.40;3.10;;;26.40;99.90;;;;;;5137725;27;20568;-70
2022/06/24 08:16:24;;;;;;;4.37;4.07;;;26.00;99.90;;;;;;5137870;27;20615;-70
2022/06/24 08:18:51;;;;;;;3.70;3.40;;;25.80;99.90;;;;;;5137783;27;20541;-70
2022/06/24 08:21:18;;;;;;;3.00;2.80;;;25.90;99.90;;;;;;5137723;27;20885;-70
2022/06/24 08:23:45;;;;;;;3.50;3.30;;;25.90;99.90;;;;;;5137209;27;20462;-71
2022/06/24 08:26:12;;;;;;;3.00;2.80;;;26.00;99.90;;;;;;5137699;27;20533;-70
2022/06/24 08:28:40;;;;;;;3.30;3.10;;;26.20;99.90;;;;;;5137645;27;20537;-70
2022/06/24 08:31:07;;;;;;;2.70;2.50;;;26.40;99.90;;;;;;5137372;27;20564;-70
2022/06/24 08:33:34;;;;;;;6.30;5.37;;;26.70;99.90;;;;;;5137368;27;20464;-70
2022/06/24 08:36:01;;;;;;;3.20;2.90;;;27.00;96.70;;;;;;5137340;27;20525;-70
2022/06/24 08:38:28;;;;;;;2.57;2.37;;;27.20;97.90;;;;;;5136357;27;20529;-68
2022/06/24 08:40:55;;;;;;;3.57;2.87;;;27.70;94.50;;;;;;5137821;27;20518;-70
2022/06/24 08:43:23;;;;;;;2.63;2.43;;;28.10;96.00;;;;;;5137098;27;20460;-70
2022/06/24 08:45:51;;;;;;;2.70;2.50;;;28.10;94.50;;;;;;5137479;27;20540;-70
2022/06/24 08:48:18;;;;;;;2.83;2.53;;;28.10;95.00;;;;;;5137260;27;20531;-70
2022/06/24 08:50:47;;;;;;;2.77;2.47;;;28.30;93.70;;;;;;5136837;27;20812;-70
2022/06/24 08:53:18;;;;;;;2.30;2.20;;;28.60;91.70;;;;;;5136546;27;20987;-70
2022/06/24 08:55:48;;;;;;;3.90;3.60;;;29.20;89.30;;;;;;5137172;27;20449;-70
2022/06/24 08:58:16;;;;;;;2.77;2.50;;;29.10;90.00;;;;;;5137089;27;20453;-70
2022/06/24 09:00:43;;;;;;;3.20;2.90;;;28.60;91.60;;;;;;5136994;27;20510;-70
2022/06/24 09:03:12;;;;;;;3.63;3.00;;;28.00;92.60;;;;;;5136537;27;20866;-70
2022/06/24 09:05:40;;;;;;;3.33;3.03;;;27.60;91.40;;;;;;5136654;27;20438;-70
2022/06/24 09:08:09;;;;;;;3.27;3.07;;;27.20;90.80;;;;;;5136838;27;20804;-70
2022/06/24 09:10:38;;;;;;;2.60;2.50;;;26.80;92.40;;;;;;5136755;27;20529;-70
2022/06/24 09:13:05;;;;;;;2.60;2.40;;;26.80;95.80;;;;;;5136326;27;20557;-70
2022/06/24 09:15:32;;;;;;;2.83;2.63;;;27.50;96.60;;;;;;5136722;27;20869;-70
2022/06/24 09:18:00;;;;;;;2.87;2.67;;;29.20;94.00;;;;;;5136310;27;20533;-70
2022/06/24 09:20:32;;;;;;;2.87;2.67;;;31.20;87.30;;;;;;5136673;27;20797;-70
2022/06/24 09:23:04;;;;;;;2.93;2.70;;;32.70;75.30;;;;;;5136590;27;20550;-70
2022/06/24 09:25:42;;;;;;;2.80;2.60;;;33.20;69.30;;;;;;5136591;27;20533;-70
2022/06/24 09:28:10;;;;;;;2.70;2.50;;;33.60;69.40;;;;;;5136165;27;20528;-71
2022/06/24 09:30:38;;;;;;;2.97;2.77;;;35.10;62.10;;;;;;5136242;27;20449;-72
2022/06/24 09:33:05;;;;;;;2.90;2.70;;;36.60;54.90;;;;;;5143891;27;20480;-69
2022/06/24 09:35:35;;;;;;;2.30;2.10;;;37.20;51.00;;;;;;5135979;27;20450;-69
2022/06/24 09:38:02;;;;;;;2.77;2.63;;;37.70;51.00;;;;;;5135073;27;20525;-69
2022/06/24 09:40:31;;;;;;;3.17;2.50;;;37.40;47.50;;;;;;5134986;27;20453;-69
2022/06/24 09:43:00;;;;;;;2.87;2.17;;;36.40;53.10;;;;;;5134455;27;20545;-68
2022/06/24 09:45:42;;;;;;;2.93;2.70;;;35.60;52.10;;;;;;5134479;27;20523;-68
2022/06/24 09:48:10;;;;;;;2.73;2.63;;;34.60;56.50;;;;;;5134447;27;20533;-69
2022/06/24 09:50:39;;;;;;;2.87;2.63;;;34.00;51.30;;;;;;5135120;27;20446;-71
2022/06/24 09:53:08;;;;;;;2.80;2.60;;;32.70;58.90;;;;;;5134383;27;20572;-71
2022/06/24 09:55:35;;;;;;;3.20;2.90;;;32.10;62.80;;;;;;5135001;27;20525;-70
2022/06/24 09:58:04;;;;;;;3.30;3.00;;;32.10;60.60;;;;;;5134400;27;20456;-74
2022/06/24 10:00:43;;;;;;;3.03;2.83;;;32.00;59.20;;;;;;5134563;27;20442;-73
2022/06/24 10:03:12;;;;;;;2.97;2.73;;;31.10;63.80;;;;;;5134385;27;20503;-73
2022/06/24 10:05:42;;;;;;;2.67;2.47;;;30.10;65.20;;;;;;5134733;27;20529;-73
2022/06/24 10:08:14;;;;;;;3.40;3.10;;;29.40;67.40;;;;;;5134624;27;20443;-72
2022/06/24 10:10:46;;;;;;;3.07;2.77;;;28.60;67.40;;;;;;5134375;27;20502;-74
2022/06/24 10:13:20;;;;;;;3.20;3.00;;;28.10;75.70;;;;;;5134120;27;20566;-74
2022/06/24 10:15:48;;;;;;;2.80;2.50;;;28.40;74.60;;;;;;5134025;27;20870;-74
2022/06/24 10:18:16;;;;;;;3.03;2.73;;;28.60;77.60;;;;;;5133969;27;20531;-74
2022/06/24 10:20:46;;;;;;;5.13;3.13;;;28.90;77.40;;;;;;5134104;27;20454;-74
2022/06/24 10:23:37;;;;;;;12.93;10.97;;;29.90;74.20;;;;;;5134149;27;20549;-70
2022/06/24 10:26:26;;;;;;;4.07;3.70;;;30.30;73.20;;;;;;5130474;27;20454;-72
2022/06/24 10:29:22;;;;;;;3.07;2.77;;;30.20;72.70;;;;;;5129299;27;20489;-72
2022/06/24 10:31:59;;;;;;;2.80;2.60;;;30.10;72.80;;;;;;5134119;27;20481;-71
2022/06/24 10:34:38;;;;;;;3.00;2.80;;;29.60;74.50;;;;;;5133583;27;20507;-72
2022/06/24 10:37:27;;;;;;;3.60;3.40;;;29.10;77.30;;;;;;5133191;27;20478;-71
2022/06/24 10:39:55;;;;;;;3.70;3.50;;;28.30;81.00;;;;;;5134171;27;20529;-71
2022/06/24 10:42:24;;;;;;;4.70;4.30;;;27.60;81.30;;;;;;5133492;27;20462;-71
2022/06/24 10:45:00;;;;;;;5.17;4.77;;;26.80;87.60;;;;;;5133730;27;20532;-70
2022/06/24 10:47:28;;;;;;;4.83;4.43;;;26.10;91.70;;;;;;5133698;27;20525;-71
2022/06/24 10:50:20;;;;;;;5.40;4.23;;;25.80;93.90;;;;;;5133570;27;20438;-71
2022/06/24 10:53:06;;;;;;;5.30;4.80;;;25.50;96.70;;;;;;5118018;27;20507;-71
2022/06/24 10:55:34;;;;;;;4.77;4.33;;;25.20;97.70;;;;;;5133679;27;20446;-71
2022/06/24 10:58:04;;;;;;;4.80;4.50;;;25.10;97.60;;;;;;5133676;27;20480;-70
2022/06/24 11:00:43;;;;;;;5.40;5.10;;;25.10;99.40;;;;;;5133167;27;20762;-71
2022/06/24 11:03:14;;;;;;;6.13;4.50;;;25.20;98.50;;;;;;5133260;27;20553;-70
2022/06/24 11:05:44;;;;;;;6.63;4.07;;;25.20;98.70;;;;;;5133659;27;20549;-71
2022/06/24 11:08:14;;;;;;;5.20;4.80;;;25.30;98.60;;;;;;5133287;27;20879;-71
2022/06/24 11:10:42;;;;;;;4.53;4.17;;;25.60;98.70;;;;;;5133201;27;20528;-71
2022/06/24 11:13:10;;;;;;;5.30;4.80;;;25.90;98.00;;;;;;5134042;27;21032;-71
2022/06/24 11:15:38;;;;;;;4.40;4.10;;;26.10;97.30;;;;;;5134467;27;20935;-71
2022/06/24 11:18:10;;;;;;;8.43;5.00;;;26.30;97.00;;;;;;5134719;27;20533;-70
2022/06/24 11:20:38;;;;;;;5.17;4.50;;;26.30;96.80;;;;;;5134478;27;20525;-71
2022/06/24 11:23:09;;;;;;;5.30;4.80;;;26.20;97.70;;;;;;5134310;27;20541;-70
2022/06/24 11:25:39;;;;;;;5.57;4.73;;;26.10;96.20;;;;;;5134531;27;20529;-71
2022/06/24 11:28:17;;;;;;;5.20;4.70;;;25.70;97.90;;;;;;5134340;27;20920;-70
2022/06/24 11:30:43;;;;;;;4.77;4.33;;;25.30;98.70;;;;;;5134492;27;20536;-70
2022/06/24 11:33:10;;;;;;;4.77;4.47;;;25.00;99.80;;;;;;5133913;27;20571;-70
2022/06/24 11:35:38;;;;;;;4.80;4.50;;;24.80;99.50;;;;;;5134436;27;20536;-70
2022/06/24 11:38:07;;;;;;;5.87;5.10;;;24.70;99.30;;;;;;5134404;27;20449;-70
2022/06/24 11:40:34;;;;;;;4.27;3.97;;;24.50;99.90;;;;;;5134442;27;20798;-70
2022/06/24 11:43:07;;;;;;;4.57;4.27;;;24.40;99.90;;;;;;5133915;27;20899;-70
2022/06/24 11:45:35;;;;;;;4.30;4.00;;;24.20;99.90;;;;;;5134348;27;20444;-70
2022/06/24 11:48:03;;;;;;;6.23;4.20;;;24.10;99.90;;;;;;5134362;27;20528;-70
2022/06/24 11:50:30;;;;;;;4.50;4.20;;;23.90;99.90;;;;;;5134279;27;20539;-70
2022/06/24 11:52:58;;;;;;;4.50;4.10;;;23.80;99.90;;;;;;5133824;27;20918;-70
2022/06/24 11:55:27;;;;;;;4.67;4.17;;;23.80;99.90;;;;;;5134476;27;20443;-70
2022/06/24 11:57:55;;;;;;;5.27;4.00;;;23.80;99.90;;;;;;5133912;27;20524;-70
2022/06/24 12:00:25;;;;;;;3.87;3.57;;;23.90;99.90;;;;;;5134132;27;20448;-70
2022/06/24 12:02:52;;;;;;;3.20;3.00;;;23.90;99.90;;;;;;5133995;27;20540;-70
2022/06/24 12:05:22;;;;;;;3.70;3.50;;;23.90;99.90;;;;;;5134171;27;20439;-70
2022/06/24 12:07:50;;;;;;;3.33;3.13;;;23.90;99.90;;;;;;5134009;27;20982;-70
2022/06/24 12:10:17;;;;;;;3.63;3.33;;;24.00;99.90;;;;;;5134132;27;20531;-70
2022/06/24 12:12:59;;;;;;;3.47;3.20;;;24.00;99.90;;;;;;5136854;27;20566;-70
2022/06/24 12:15:34;;;;;;;3.50;3.20;;;24.00;99.90;;;;;;5138097;27;20448;-70
2022/06/24 12:18:02;;;;;;;2.93;2.77;;;24.00;99.90;;;;;;5137915;27;20444;-70
2022/06/24 12:20:30;;;;;;;3.17;2.93;;;24.10;99.90;;;;;;5137708;27;20447;-70
2022/06/24 12:23:19;;;;;;;3.70;3.23;;;24.20;99.90;;;;;;5137257;27;20555;-70
2022/06/24 12:25:47;;;;;;;3.13;2.93;;;24.10;99.90;;;;;;5133110;27;20823;-70
2022/06/24 12:28:18;;;;;;;2.80;2.50;;;24.10;99.90;;;;;;5137488;27;21016;-69
2022/06/24 12:31:01;;;;;;;3.17;2.87;;;24.00;97.40;;;;;;5137749;27;20432;-70
2022/06/24 12:33:29;;;;;;;2.83;2.63;;;24.00;98.80;;;;;;5137060;27;20480;-69
2022/06/24 12:36:09;;;;;;;2.70;2.50;;;24.00;99.10;;;;;;5137438;27;20818;-70
2022/06/24 12:38:37;;;;;;;5.10;4.70;;;23.90;99.00;;;;;;5137247;27;20442;-70
2022/06/24 12:41:12;;;;;;;4.53;3.67;;;23.90;99.90;;;;;;5137263;27;20445;-70
2022/06/24 12:43:52;;;;;;;4.20;3.83;;;24.00;99.90;;;;;;5137281;27;20823;-70
2022/06/24 12:46:21;;;;;;;3.90;3.60;;;24.10;99.90;;;;;;5137332;27;20534;-70
2022/06/24 12:51:38;;;;;;;4.13;3.73;;;24.10;99.90;;;;;;5137178;27;20775;-70
2022/06/24 12:54:05;;;;;;;5.87;5.37;;;24.20;99.90;;;;;;5136939;27;20488;-70
2022/06/24 12:56:34;;;;;;;7.40;6.70;;;24.30;99.90;;;;;;5137093;27;20527;-70
2022/06/24 12:59:02;;;;;;;3.63;3.43;;;24.40;99.90;;;;;;5137104;27;20450;-70
2022/06/24 13:01:31;;;;;;;3.93;3.60;;;24.40;99.90;;;;;;5137006;27;20530;-70
2022/06/24 13:03:59;;;;;;;3.40;3.20;;;24.40;99.90;;;;;;5136769;27;20461;-70
2022/06/24 13:06:26;;;;;;;3.90;3.40;;;24.20;99.90;;;;;;5136959;27;20834;-70
2022/06/24 13:08:53;;;;;;;4.40;3.53;;;23.90;99.90;;;;;;5137023;27;20948;-70